createdAt,value
2023-01-09T00:00:11.603Z,7.7
2023-01-09T00:01:19.915Z,7.7
2023-01-09T00:02:28.523Z,7.6
2023-01-09T00:03:36.904Z,7.6
2023-01-09T00:04:45.246Z,7.6
2023-01-09T00:05:53.781Z,7.7
2023-01-09T00:07:02.195Z,7.7
2023-01-09T00:08:10.576Z,7.7
2023-01-09T00:09:19.152Z,7.3
2023-01-09T00:10:27.531Z,7.3
2023-01-09T00:11:35.884Z,7.3
2023-01-09T00:12:44.485Z,6.8
2023-01-09T00:13:52.859Z,6.8
2023-01-09T00:15:01.235Z,6.8
2023-01-09T00:16:09.792Z,6.8
2023-01-09T00:17:18.129Z,6.8
2023-01-09T00:18:26.504Z,6.8
2023-01-09T00:19:35.062Z,6.2
2023-01-09T00:20:43.446Z,6.2
2023-01-09T00:21:51.819Z,6.2
2023-01-09T00:23:00.396Z,6
2023-01-09T00:24:08.742Z,6
2023-01-09T00:25:17.119Z,6
2023-01-09T00:26:25.660Z,6.4
2023-01-09T00:27:34.044Z,6.4
2023-01-09T00:28:42.420Z,6.4
2023-01-09T00:29:51.007Z,6
2023-01-09T00:30:59.439Z,6
2023-01-09T00:32:07.728Z,6
2023-01-09T00:33:16.338Z,6.4
2023-01-09T00:34:24.682Z,6.4
2023-01-09T00:35:33.065Z,6.4
2023-01-09T00:36:41.604Z,6.2
2023-01-09T00:37:50.013Z,6.2
2023-01-09T00:38:58.376Z,6.2
2023-01-09T00:40:06.955Z,5.9
2023-01-09T00:41:15.326Z,5.9
2023-01-09T00:42:23.657Z,5.9
2023-01-09T00:43:32.237Z,5.9
2023-01-09T00:44:40.616Z,5.9
2023-01-09T00:45:49.011Z,5.9
2023-01-09T00:46:57.656Z,6.3
2023-01-09T00:48:06.028Z,6.3
2023-01-09T00:49:14.411Z,6.3
2023-01-09T00:50:22.983Z,5.9
2023-01-09T00:51:31.341Z,5.9
2023-01-09T00:52:39.739Z,5.9
2023-01-09T00:53:48.287Z,6.1
2023-01-09T00:54:56.675Z,6.1
2023-01-09T00:56:05.075Z,6.1
2023-01-09T00:57:13.638Z,6.2
2023-01-09T00:58:22.028Z,6.2
2023-01-09T00:59:30.361Z,6.2
2023-01-09T01:00:38.913Z,6.2
2023-01-09T01:01:47.372Z,6.2
2023-01-09T01:02:55.704Z,6.2
2023-01-09T01:04:04.248Z,6
2023-01-09T01:05:12.595Z,6
2023-01-09T01:06:20.952Z,6
2023-01-09T01:07:29.552Z,5.6
2023-01-09T01:08:37.936Z,5.6
2023-01-09T01:09:46.299Z,5.6
2023-01-09T01:10:54.857Z,5.3
2023-01-09T01:12:03.263Z,5.3
2023-01-09T01:13:11.604Z,5.3
2023-01-09T01:14:20.190Z,6.3
2023-01-09T01:15:28.572Z,6.3
2023-01-09T01:16:36.954Z,6.3
2023-01-09T01:17:45.504Z,5.7
2023-01-09T01:18:53.835Z,5.7
2023-01-09T01:20:02.223Z,5.7
2023-01-09T01:21:10.779Z,5.3
2023-01-09T01:22:19.120Z,5.3
2023-01-09T01:23:27.486Z,5.3
2023-01-09T01:24:36.054Z,5.3
2023-01-09T01:25:44.396Z,5.3
2023-01-09T01:26:52.744Z,5.3
2023-01-09T01:28:01.347Z,5
2023-01-09T01:29:09.712Z,5
2023-01-09T01:30:18.057Z,5
2023-01-09T01:31:26.611Z,4.7
2023-01-09T01:32:34.983Z,4.7
2023-01-09T01:33:43.330Z,4.7
2023-01-09T01:34:51.897Z,5
2023-01-09T01:36:00.248Z,5
2023-01-09T01:37:08.621Z,5
2023-01-09T01:38:17.197Z,4.8
2023-01-09T01:39:25.540Z,4.8
2023-01-09T01:40:33.905Z,4.8
2023-01-09T01:41:42.491Z,4.4
2023-01-09T01:42:50.866Z,4.4
2023-01-09T01:43:59.255Z,4.4
2023-01-09T01:45:07.774Z,3.8
2023-01-09T01:46:16.165Z,3.8
2023-01-09T01:47:24.521Z,3.8
2023-01-09T01:48:33.087Z,3.8
2023-01-09T01:49:41.423Z,3.8
2023-01-09T01:50:49.779Z,3.8
2023-01-09T01:51:58.335Z,3.9
2023-01-09T01:53:06.721Z,3.9
2023-01-09T01:54:15.058Z,3.9
2023-01-09T01:55:23.623Z,3.7
2023-01-09T01:56:31.989Z,3.7
2023-01-09T01:57:40.357Z,3.7
2023-01-09T01:58:48.958Z,3.8
2023-01-09T01:59:57.350Z,3.8
2023-01-09T02:01:05.769Z,3.8
2023-01-09T02:02:14.383Z,3.5
2023-01-09T02:03:22.608Z,3.5
2023-01-09T02:04:30.981Z,3.5
2023-01-09T02:05:39.539Z,3.4
2023-01-09T02:06:47.921Z,3.4
2023-01-09T02:07:56.290Z,3.4
2023-01-09T02:09:04.866Z,3.1
2023-01-09T02:10:13.208Z,3.1
2023-01-09T02:11:21.557Z,3.1
2023-01-09T02:12:30.145Z,3.2
2023-01-09T02:13:38.492Z,3.2
2023-01-09T02:14:46.848Z,3.2
2023-01-09T02:15:55.454Z,3.2
2023-01-09T02:17:03.768Z,3.2
2023-01-09T02:18:12.138Z,3.2
2023-01-09T02:19:20.720Z,3.1
2023-01-09T02:20:29.053Z,3.1
2023-01-09T02:21:37.418Z,3.1
2023-01-09T02:22:46.011Z,3
2023-01-09T02:23:54.354Z,3
2023-01-09T02:25:02.716Z,3
2023-01-09T02:26:11.289Z,2.7
2023-01-09T02:27:19.649Z,2.7
2023-01-09T02:28:28.022Z,2.7
2023-01-09T02:29:36.586Z,2.8
2023-01-09T02:30:44.943Z,2.8
2023-01-09T02:31:53.418Z,2.8
2023-01-09T02:33:01.880Z,3
2023-01-09T02:34:10.206Z,3
2023-01-09T02:35:18.567Z,3
2023-01-09T02:36:27.135Z,3
2023-01-09T02:37:35.513Z,3
2023-01-09T02:38:43.894Z,3
2023-01-09T02:39:52.450Z,2.4
2023-01-09T02:41:00.824Z,2.4
2023-01-09T02:42:09.179Z,2.4
2023-01-09T02:43:17.755Z,2.7
2023-01-09T02:44:26.115Z,2.7
2023-01-09T02:45:34.554Z,2.7
2023-01-09T02:46:43.049Z,2.4
2023-01-09T02:47:51.425Z,2.4
2023-01-09T02:48:59.750Z,2.4
2023-01-09T02:50:08.304Z,2.5
2023-01-09T02:51:16.670Z,2.5
2023-01-09T02:52:25.054Z,2.5
2023-01-09T02:53:33.618Z,2.5
2023-01-09T02:54:41.972Z,2.5
2023-01-09T02:55:50.351Z,2.5
2023-01-09T02:56:58.943Z,1.9
2023-01-09T02:58:07.311Z,1.9
2023-01-09T02:59:15.678Z,1.9
2023-01-09T03:00:24.229Z,2.3
2023-01-09T03:01:32.771Z,2.3
2023-01-09T03:02:41.011Z,2.3
2023-01-09T03:03:49.594Z,2.2
2023-01-09T03:04:57.925Z,2.2
2023-01-09T03:06:06.300Z,2.2
2023-01-09T03:07:14.845Z,2.5
2023-01-09T03:08:23.219Z,2.5
2023-01-09T03:09:31.579Z,2.5
2023-01-09T03:10:40.153Z,2.2
2023-01-09T03:11:48.521Z,2.2
2023-01-09T03:12:58.892Z,2.2
2023-01-09T03:14:05.438Z,2.2
2023-01-09T03:15:13.779Z,2.2
2023-01-09T03:16:22.168Z,2.2
2023-01-09T03:17:30.720Z,2.2
2023-01-09T03:18:39.065Z,2.2
2023-01-09T03:19:47.450Z,2.2
2023-01-09T03:20:56.020Z,2
2023-01-09T03:22:04.387Z,2
2023-01-09T03:23:12.778Z,2
2023-01-09T03:24:21.290Z,2.3
2023-01-09T03:25:29.660Z,2.3
2023-01-09T03:26:38.033Z,2.3
2023-01-09T03:27:46.628Z,2.3
2023-01-09T03:28:54.957Z,2.3
2023-01-09T03:30:03.335Z,2.3
2023-01-09T03:31:11.949Z,2.1
2023-01-09T03:32:20.257Z,2.1
2023-01-09T03:33:28.616Z,2.1
2023-01-09T03:34:37.250Z,2.2
2023-01-09T03:35:45.667Z,2.2
2023-01-09T03:36:54.007Z,2.2
2023-01-09T03:38:02.597Z,2.1
2023-01-09T03:39:10.985Z,2.1
2023-01-09T03:40:19.348Z,2.1
2023-01-09T03:41:27.987Z,2.4
2023-01-09T03:42:36.341Z,2.4
2023-01-09T03:43:44.723Z,2.4
2023-01-09T03:44:53.287Z,2.5
2023-01-09T03:46:01.723Z,2.5
2023-01-09T03:47:10.047Z,2.5
2023-01-09T03:48:18.587Z,2.3
2023-01-09T03:49:27.969Z,2.3
2023-01-09T03:50:36.364Z,2.3
2023-01-09T03:51:44.969Z,2.3
2023-01-09T03:52:53.340Z,2.3
2023-01-09T03:54:01.682Z,2.3
2023-01-09T03:55:10.274Z,2.2
2023-01-09T03:56:18.654Z,2.2
2023-01-09T03:57:26.995Z,2.2
2023-01-09T03:58:35.555Z,2.3
2023-01-09T03:59:43.914Z,2.3
2023-01-09T04:00:52.464Z,2.3
2023-01-09T04:02:03.578Z,1.8
2023-01-09T04:03:09.264Z,1.8
2023-01-09T04:04:17.643Z,1.8
2023-01-09T04:05:26.281Z,2
2023-01-09T04:06:34.661Z,2
2023-01-09T04:07:43.090Z,2
2023-01-09T04:08:51.576Z,2.1
2023-01-09T04:09:59.956Z,2.1
2023-01-09T04:11:08.340Z,2.1
2023-01-09T04:12:16.896Z,2.1
2023-01-09T04:13:25.289Z,2.1
2023-01-09T04:14:33.708Z,2.1
2023-01-09T04:15:42.305Z,2.3
2023-01-09T04:16:50.721Z,2.3
2023-01-09T04:17:59.116Z,2.3
2023-01-09T04:19:07.698Z,2.4
2023-01-09T04:20:16.075Z,2.4
2023-01-09T04:21:24.441Z,2.4
2023-01-09T04:22:33.005Z,2.6
2023-01-09T04:23:41.370Z,2.6
2023-01-09T04:24:49.723Z,2.6
2023-01-09T04:25:58.299Z,3.1
2023-01-09T04:27:06.688Z,3.1
2023-01-09T04:28:15.053Z,3.1
2023-01-09T04:29:23.603Z,2.6
2023-01-09T04:30:32.035Z,2.6
2023-01-09T04:31:40.414Z,2.6
2023-01-09T04:32:48.978Z,2.7
2023-01-09T04:33:57.456Z,2.7
2023-01-09T04:35:05.833Z,2.7
2023-01-09T04:36:14.396Z,2.9
2023-01-09T04:37:22.753Z,2.9
2023-01-09T04:38:31.129Z,2.9
2023-01-09T04:39:39.734Z,3
2023-01-09T04:40:48.043Z,3
2023-01-09T04:41:56.389Z,3
2023-01-09T04:43:04.963Z,3
2023-01-09T04:44:13.310Z,3
2023-01-09T04:45:21.663Z,3
2023-01-09T04:46:30.240Z,3.1
2023-01-09T04:47:38.596Z,3.1
2023-01-09T04:48:46.895Z,3.1
2023-01-09T04:49:55.465Z,3.1
2023-01-09T04:51:03.810Z,3.1
2023-01-09T04:52:12.150Z,3.1
2023-01-09T04:53:20.696Z,3.4
2023-01-09T04:54:29.043Z,3.4
2023-01-09T04:55:37.410Z,3.4
2023-01-09T04:56:45.937Z,3.4
2023-01-09T04:57:54.271Z,3.4
2023-01-09T04:59:02.616Z,3.4
2023-01-09T05:00:11.180Z,3.6
2023-01-09T05:01:19.568Z,3.6
2023-01-09T05:02:27.858Z,3.6
2023-01-09T05:03:36.406Z,3.4
2023-01-09T05:04:44.749Z,3.4
2023-01-09T05:05:53.095Z,3.4
2023-01-09T05:07:01.656Z,3.9
2023-01-09T05:08:09.992Z,3.9
2023-01-09T05:09:18.336Z,3.9
2023-01-09T05:10:26.917Z,12.1
2023-01-09T05:11:35.293Z,12.1
2023-01-09T05:12:43.615Z,12.1
2023-01-09T05:13:52.165Z,5.1
2023-01-09T05:15:00.519Z,5.1
2023-01-09T05:16:08.948Z,5.1
2023-01-09T05:17:17.422Z,4.3
2023-01-09T05:18:25.759Z,4.3
2023-01-09T05:19:34.108Z,4.3
2023-01-09T05:20:42.664Z,4.4
2023-01-09T05:21:51.003Z,4.4
2023-01-09T05:22:59.334Z,4.4
2023-01-09T05:24:07.904Z,4.4
2023-01-09T05:25:16.252Z,4.4
2023-01-09T05:26:24.592Z,4.4
2023-01-09T05:27:33.185Z,4.3
2023-01-09T05:28:41.551Z,4.3
2023-01-09T05:29:49.873Z,4.3
2023-01-09T05:30:58.432Z,7
2023-01-09T05:32:06.780Z,7
2023-01-09T05:33:15.120Z,7
2023-01-09T05:34:23.675Z,4.3
2023-01-09T05:35:32.068Z,4.3
2023-01-09T05:36:40.744Z,4.3
2023-01-09T05:37:49.234Z,5.6
2023-01-09T05:38:57.659Z,5.6
2023-01-09T05:40:06.159Z,5.6
2023-01-09T05:41:14.737Z,4.2
2023-01-09T05:42:23.162Z,4.2
2023-01-09T05:43:31.555Z,4.2
2023-01-09T05:44:40.127Z,4.2
2023-01-09T05:45:48.555Z,4.2
2023-01-09T05:46:56.913Z,4.2
2023-01-09T05:48:05.710Z,4.4
2023-01-09T05:49:14.124Z,4.4
2023-01-09T05:50:22.746Z,4.4
2023-01-09T05:51:31.426Z,32.299999
2023-01-09T05:52:39.885Z,32.299999
2023-01-09T05:53:48.412Z,32.299999
2023-01-09T05:54:57.084Z,10
2023-01-09T05:56:05.569Z,10
2023-01-09T05:57:14.007Z,10
2023-01-09T05:58:22.843Z,3.9
2023-01-09T05:59:31.391Z,3.9
2023-01-09T06:00:39.997Z,3.9
2023-01-09T06:01:48.639Z,3.9
2023-01-09T06:02:57.144Z,3.9
2023-01-09T06:04:05.544Z,3.9
2023-01-09T06:05:14.209Z,4.3
2023-01-09T06:06:22.568Z,4.3
2023-01-09T06:07:30.977Z,4.3
2023-01-09T06:08:39.629Z,5.4
2023-01-09T06:09:48.062Z,5.4
2023-01-09T06:10:56.417Z,5.4
2023-01-09T06:12:05.003Z,3.1
2023-01-09T06:13:13.431Z,3.1
2023-01-09T06:14:21.863Z,3.1
2023-01-09T06:15:30.558Z,3
2023-01-09T06:16:38.874Z,3
2023-01-09T06:17:47.291Z,3
2023-01-09T06:18:55.885Z,4.9
2023-01-09T06:20:04.256Z,4.9
2023-01-09T06:21:12.619Z,4.9
2023-01-09T06:22:21.202Z,4.5
2023-01-09T06:23:29.567Z,4.5
2023-01-09T06:24:37.955Z,4.5
2023-01-09T06:25:46.555Z,2.8
2023-01-09T06:26:55.108Z,2.8
2023-01-09T06:28:03.848Z,2.8
2023-01-09T06:29:12.477Z,13
2023-01-09T06:30:20.911Z,13
2023-01-09T06:31:29.398Z,13
2023-01-09T06:32:37.870Z,7.7
2023-01-09T06:33:46.214Z,7.7
2023-01-09T06:34:54.588Z,7.7
2023-01-09T06:36:03.169Z,42.400002
2023-01-09T06:37:12.489Z,42.400002
2023-01-09T06:38:20.848Z,42.400002
2023-01-09T06:39:29.438Z,39
2023-01-09T06:40:37.810Z,39
2023-01-09T06:41:48.452Z,39
2023-01-09T06:42:54.727Z,12.4
2023-01-09T06:44:03.098Z,12.4
2023-01-09T06:45:11.447Z,12.4
2023-01-09T06:46:20.055Z,5.8
2023-01-09T06:47:28.396Z,5.8
2023-01-09T06:48:36.718Z,5.8
2023-01-09T06:49:45.289Z,4.7
2023-01-09T06:50:53.663Z,4.7
2023-01-09T06:52:02.031Z,4.7
2023-01-09T06:53:10.666Z,4.1
2023-01-09T06:54:19.030Z,4.1
2023-01-09T06:55:27.404Z,4.1
2023-01-09T06:56:35.963Z,4
2023-01-09T06:57:44.297Z,4
2023-01-09T06:58:52.701Z,4
2023-01-09T07:00:01.315Z,3.1
2023-01-09T07:01:09.800Z,3.1
2023-01-09T07:02:18.167Z,3.1
2023-01-09T07:03:26.850Z,4
2023-01-09T07:04:35.256Z,4
2023-01-09T07:05:43.615Z,4
2023-01-09T07:06:52.167Z,4.5
2023-01-09T07:08:00.547Z,4.5
2023-01-09T07:09:08.884Z,4.5
2023-01-09T07:10:17.430Z,2.8
2023-01-09T07:11:25.890Z,2.8
2023-01-09T07:12:34.288Z,2.8
2023-01-09T07:13:42.836Z,3.1
2023-01-09T07:14:51.219Z,3.1
2023-01-09T07:15:59.590Z,3.1
2023-01-09T07:17:08.163Z,3
2023-01-09T07:18:16.584Z,3
2023-01-09T07:19:24.963Z,3
2023-01-09T07:20:33.496Z,2.1
2023-01-09T07:21:41.955Z,2.1
2023-01-09T07:22:50.349Z,2.1
2023-01-09T07:23:58.931Z,1.8
2023-01-09T07:25:07.322Z,1.8
2023-01-09T07:26:15.670Z,1.8
2023-01-09T07:27:24.289Z,2.2
2023-01-09T07:28:32.640Z,2.2
2023-01-09T07:29:41.059Z,2.2
2023-01-09T07:30:49.629Z,2.1
2023-01-09T07:31:57.955Z,2.1
2023-01-09T07:33:06.320Z,2.1
2023-01-09T07:34:14.899Z,2.7
2023-01-09T07:35:23.302Z,2.7
2023-01-09T07:36:31.638Z,2.7
2023-01-09T07:37:40.221Z,3.1
2023-01-09T07:38:48.555Z,3.1
2023-01-09T07:39:56.926Z,3.1
2023-01-09T07:41:05.526Z,1.3
2023-01-09T07:42:13.865Z,1.3
2023-01-09T07:43:22.245Z,1.3
2023-01-09T07:44:31.525Z,1.5
2023-01-09T07:45:39.894Z,1.5
2023-01-09T07:46:48.264Z,1.5
2023-01-09T07:47:56.855Z,1
2023-01-09T07:49:05.261Z,1
2023-01-09T07:50:13.597Z,1
2023-01-09T07:51:22.180Z,1.1
2023-01-09T07:52:30.517Z,1.1
2023-01-09T07:53:38.931Z,1.1
2023-01-09T07:54:47.547Z,0.6
2023-01-09T07:55:55.958Z,0.6
2023-01-09T07:57:04.297Z,0.6
2023-01-09T07:58:12.881Z,0.6
2023-01-09T07:59:21.261Z,0.6
2023-01-09T08:00:31.281Z,0.6
2023-01-09T08:01:38.379Z,0.6
2023-01-09T08:02:46.714Z,0.6
2023-01-09T08:03:54.960Z,0.6
2023-01-09T08:05:03.552Z,0.8
2023-01-09T08:06:11.950Z,0.8
2023-01-09T08:07:20.306Z,0.8
2023-01-09T08:08:28.865Z,0.5
2023-01-09T08:09:37.260Z,0.5
2023-01-09T08:10:45.598Z,0.5
2023-01-09T08:11:55.736Z,0.5
2023-01-09T08:13:02.583Z,0.5
2023-01-09T08:14:10.955Z,0.5
2023-01-09T08:15:19.534Z,0.8
2023-01-09T08:16:27.911Z,0.8
2023-01-09T08:17:36.284Z,0.8
2023-01-09T08:18:44.908Z,0.6
2023-01-09T08:19:53.246Z,0.6
2023-01-09T08:21:01.662Z,0.6
2023-01-09T08:22:10.241Z,0.5
2023-01-09T08:23:18.771Z,0.5
2023-01-09T08:24:27.066Z,0.5
2023-01-09T08:25:35.617Z,0.5
2023-01-09T08:26:44.022Z,0.5
2023-01-09T08:27:52.383Z,0.5
2023-01-09T08:29:00.967Z,0.6
2023-01-09T08:30:09.318Z,0.6
2023-01-09T08:31:17.743Z,0.6
2023-01-09T08:32:26.254Z,0.5
2023-01-09T08:33:34.633Z,0.5
2023-01-09T08:34:43.068Z,0.5
2023-01-09T08:35:51.688Z,0.7
2023-01-09T08:37:00.047Z,0.7
2023-01-09T08:38:08.415Z,0.7
2023-01-09T08:39:17.152Z,0.6
2023-01-09T08:40:25.506Z,0.6
2023-01-09T08:41:33.863Z,0.6
2023-01-09T08:42:42.433Z,0.6
2023-01-09T08:43:51.126Z,0.6
2023-01-09T08:45:02.260Z,0.6
2023-01-09T08:46:10.861Z,0.7
2023-01-09T08:47:19.151Z,0.7
2023-01-09T08:48:27.539Z,0.7
2023-01-09T08:49:36.094Z,0.5
2023-01-09T08:50:44.445Z,0.5
2023-01-09T08:51:52.826Z,0.5
2023-01-09T08:53:01.423Z,0.5
2023-01-09T08:54:09.764Z,0.5
2023-01-09T08:55:18.280Z,0.5
2023-01-09T08:56:26.854Z,0.4
2023-01-09T08:57:35.248Z,0.4
2023-01-09T08:58:43.576Z,0.4
2023-01-09T08:59:52.161Z,0.3
2023-01-09T09:01:00.483Z,0.3
2023-01-09T09:02:08.847Z,0.3
2023-01-09T09:03:17.464Z,0.4
2023-01-09T09:04:25.815Z,0.4
2023-01-09T09:05:34.181Z,0.4
2023-01-09T09:06:42.734Z,1
2023-01-09T09:07:51.130Z,1
2023-01-09T09:08:59.546Z,1
2023-01-09T09:10:08.095Z,0.4
2023-01-09T09:11:16.474Z,0.4
2023-01-09T09:12:24.832Z,0.4
2023-01-09T09:13:33.383Z,0.3
2023-01-09T09:14:41.737Z,0.3
2023-01-09T09:15:50.201Z,0.3
2023-01-09T09:16:58.688Z,0.3
2023-01-09T09:18:07.097Z,0.3
2023-01-09T09:19:15.439Z,0.3
2023-01-09T09:20:24.167Z,0.5
2023-01-09T09:21:32.334Z,0.5
2023-01-09T09:22:40.709Z,0.5
2023-01-09T09:23:49.287Z,0.3
2023-01-09T09:24:57.617Z,0.3
2023-01-09T09:26:05.988Z,0.3
2023-01-09T09:27:14.554Z,0.4
2023-01-09T09:28:22.936Z,0.4
2023-01-09T09:29:31.315Z,0.4
2023-01-09T09:30:39.829Z,0.6
2023-01-09T09:31:48.198Z,0.6
2023-01-09T09:32:56.609Z,0.6
2023-01-09T09:34:05.132Z,1.6
2023-01-09T09:35:13.536Z,1.6
2023-01-09T09:36:21.913Z,1.6
2023-01-09T09:37:30.457Z,2.4
2023-01-09T09:38:38.824Z,2.4
2023-01-09T09:39:47.219Z,2.4
2023-01-09T09:40:55.835Z,2.5
2023-01-09T09:42:04.154Z,2.5
2023-01-09T09:43:12.571Z,2.5
2023-01-09T09:44:21.154Z,0.4
2023-01-09T09:45:29.539Z,0.4
2023-01-09T09:46:37.936Z,0.4
2023-01-09T09:47:46.490Z,2.5
2023-01-09T09:48:54.817Z,2.5
2023-01-09T09:50:03.177Z,2.5
2023-01-09T09:51:11.746Z,1.8
2023-01-09T09:52:20.129Z,1.8
2023-01-09T09:53:28.513Z,1.8
2023-01-09T09:54:37.049Z,2.6
2023-01-09T09:55:45.382Z,2.6
2023-01-09T09:56:53.744Z,2.6
2023-01-09T09:58:02.333Z,2.3
2023-01-09T09:59:10.707Z,2.3
2023-01-09T10:00:19.031Z,2.3
2023-01-09T10:01:27.605Z,1.5
2023-01-09T10:02:36.058Z,1.5
2023-01-09T10:03:44.342Z,1.5
2023-01-09T10:04:52.896Z,1.1
2023-01-09T10:06:01.257Z,1.1
2023-01-09T10:07:09.740Z,1.1
2023-01-09T10:08:18.199Z,0.5
2023-01-09T10:09:26.594Z,0.5
2023-01-09T10:10:34.941Z,0.5
2023-01-09T10:11:43.504Z,0.7
2023-01-09T10:12:51.945Z,0.7
2023-01-09T10:14:00.283Z,0.7
2023-01-09T10:15:08.883Z,1
2023-01-09T10:16:17.225Z,1
2023-01-09T10:17:25.567Z,1
2023-01-09T10:18:34.125Z,0.6
2023-01-09T10:19:42.497Z,0.6
2023-01-09T10:20:50.881Z,0.6
2023-01-09T10:21:59.434Z,0.8
2023-01-09T10:23:07.789Z,0.8
2023-01-09T10:24:16.194Z,0.8
2023-01-09T10:25:24.757Z,0.9
2023-01-09T10:26:33.096Z,0.9
2023-01-09T10:27:41.450Z,0.9
2023-01-09T10:28:49.993Z,0.8
2023-01-09T10:29:58.391Z,0.8
2023-01-09T10:31:06.881Z,0.8
2023-01-09T10:32:15.283Z,1.6
2023-01-09T10:33:23.653Z,1.6
2023-01-09T10:34:32.057Z,1.6
2023-01-09T10:35:47.584Z,0.7
2023-01-09T10:36:49.051Z,0.7
2023-01-09T10:37:57.361Z,0.7
2023-01-09T10:39:05.987Z,0.6
2023-01-09T10:40:14.390Z,0.6
2023-01-09T10:41:22.781Z,0.6
2023-01-09T10:42:31.350Z,1.1
2023-01-09T10:43:39.712Z,1.1
2023-01-09T10:44:48.062Z,1.1
2023-01-09T10:45:56.633Z,0.9
2023-01-09T10:47:05.102Z,0.9
2023-01-09T10:48:13.393Z,0.9
2023-01-09T10:49:21.940Z,0.9
2023-01-09T10:50:30.262Z,0.9
2023-01-09T10:51:38.630Z,0.9
2023-01-09T10:52:47.259Z,0.7
2023-01-09T10:53:55.699Z,0.7
2023-01-09T10:55:04.036Z,0.7
2023-01-09T10:56:12.648Z,0.9
2023-01-09T10:57:20.991Z,0.9
2023-01-09T10:58:29.366Z,0.9
2023-01-09T10:59:37.941Z,1.4
2023-01-09T11:00:46.323Z,1.4
2023-01-09T11:01:54.785Z,1.4
2023-01-09T11:03:03.384Z,1
2023-01-09T11:04:11.743Z,1
2023-01-09T11:05:20.106Z,1
2023-01-09T11:06:28.723Z,1.3
2023-01-09T11:07:37.126Z,1.3
2023-01-09T11:08:45.483Z,1.3
2023-01-09T11:09:54.077Z,1
2023-01-09T11:11:02.440Z,1
2023-01-09T11:12:10.794Z,1
2023-01-09T11:13:19.359Z,0.8
2023-01-09T11:14:27.763Z,0.8
2023-01-09T11:15:36.124Z,0.8
2023-01-09T11:16:44.748Z,1.4
2023-01-09T11:17:53.095Z,1.4
2023-01-09T11:19:01.468Z,1.4
2023-01-09T11:20:11.238Z,1
2023-01-09T11:21:18.387Z,1
2023-01-09T11:22:26.765Z,1
2023-01-09T11:23:35.380Z,0.9
2023-01-09T11:24:43.805Z,0.9
2023-01-09T11:25:52.161Z,0.9
2023-01-09T11:27:00.837Z,0.8
2023-01-09T11:28:09.205Z,0.8
2023-01-09T11:29:17.585Z,0.8
2023-01-09T11:30:26.267Z,1
2023-01-09T11:31:34.708Z,1
2023-01-09T11:32:43.069Z,1
2023-01-09T11:33:51.632Z,0.9
2023-01-09T11:35:00.078Z,0.9
2023-01-09T11:36:08.383Z,0.9
2023-01-09T11:37:16.964Z,0.8
2023-01-09T11:38:25.342Z,0.8
2023-01-09T11:39:33.686Z,0.8
2023-01-09T11:40:42.256Z,0.8
2023-01-09T11:41:50.693Z,0.8
2023-01-09T11:42:59.073Z,0.8
2023-01-09T11:44:07.660Z,0.6
2023-01-09T11:45:16.072Z,0.6
2023-01-09T11:46:24.450Z,0.6
2023-01-09T11:47:32.974Z,0.7
2023-01-09T11:48:41.347Z,0.7
2023-01-09T11:49:51.268Z,0.7
2023-01-09T11:50:58.290Z,0.7
2023-01-09T11:52:06.667Z,0.7
2023-01-09T11:53:15.031Z,0.7
2023-01-09T11:54:23.591Z,0.6
2023-01-09T11:55:41.683Z,0.6
2023-01-09T11:56:40.309Z,0.6
2023-01-09T11:57:48.877Z,0.7
2023-01-09T11:58:57.246Z,0.7
2023-01-09T12:00:05.590Z,0.7
2023-01-09T12:01:14.166Z,0.4
2023-01-09T12:02:22.603Z,0.4
2023-01-09T12:03:30.905Z,0.4
2023-01-09T12:04:39.431Z,0.6
2023-01-09T12:05:47.838Z,0.6
2023-01-09T12:06:56.273Z,0.6
2023-01-09T12:08:04.792Z,0.7
2023-01-09T12:09:13.571Z,0.7
2023-01-09T12:10:22.035Z,0.7
2023-01-09T12:11:30.550Z,0.6
2023-01-09T12:12:38.910Z,0.6
2023-01-09T12:13:47.261Z,0.6
2023-01-09T12:14:55.933Z,0.6
2023-01-09T12:16:04.758Z,0.6
2023-01-09T12:17:13.911Z,0.6
2023-01-09T12:18:22.469Z,0.6
2023-01-09T12:19:30.853Z,0.6
2023-01-09T12:20:39.208Z,0.6
2023-01-09T12:21:47.782Z,0.6
2023-01-09T12:22:56.579Z,0.6
2023-01-09T12:24:05.557Z,0.6
2023-01-09T12:25:14.143Z,0.9
2023-01-09T12:26:22.493Z,0.9
2023-01-09T12:27:30.863Z,0.9
2023-01-09T12:28:39.425Z,0.5
2023-01-09T12:29:47.838Z,0.5
2023-01-09T12:30:56.217Z,0.5
2023-01-09T12:32:04.892Z,0.5
2023-01-09T12:33:13.149Z,0.5
2023-01-09T12:34:21.541Z,0.5
2023-01-09T12:35:30.134Z,0.4
2023-01-09T12:36:53.672Z,0.4
2023-01-09T12:38:02.084Z,0.4
2023-01-09T12:39:10.605Z,0.9
2023-01-09T12:40:18.995Z,0.9
2023-01-09T12:41:27.365Z,0.9
2023-01-09T12:42:35.932Z,0.8
2023-01-09T12:43:44.349Z,0.8
2023-01-09T12:44:52.705Z,0.8
2023-01-09T12:46:01.373Z,2
2023-01-09T12:47:09.765Z,2
2023-01-09T12:48:18.133Z,2
2023-01-09T12:49:26.762Z,0.9
2023-01-09T12:50:35.115Z,0.9
2023-01-09T12:51:43.496Z,0.9
2023-01-09T12:52:52.044Z,0.4
2023-01-09T12:54:00.568Z,0.4
2023-01-09T12:55:08.971Z,0.4
2023-01-09T12:56:17.583Z,0.7
2023-01-09T12:57:25.989Z,0.7
2023-01-09T12:58:34.333Z,0.7
2023-01-09T12:59:43.009Z,1.4
2023-01-09T13:00:51.407Z,1.4
2023-01-09T13:01:59.743Z,1.4
2023-01-09T13:03:12.703Z,0.4
2023-01-09T13:04:16.786Z,0.4
2023-01-09T13:05:25.154Z,0.4
2023-01-09T13:06:33.800Z,3.9
2023-01-09T13:07:42.188Z,3.9
2023-01-09T13:08:50.546Z,3.9
2023-01-09T13:09:59.119Z,1
2023-01-09T13:11:19.206Z,1
2023-01-09T13:12:15.829Z,1
2023-01-09T13:13:24.402Z,0.8
2023-01-09T13:14:32.754Z,0.8
2023-01-09T13:15:41.226Z,0.8
2023-01-09T13:16:49.931Z,0.6
2023-01-09T13:17:58.388Z,0.6
2023-01-09T13:19:06.754Z,0.6
2023-01-09T13:20:15.333Z,0.6
2023-01-09T13:21:23.739Z,0.6
2023-01-09T13:22:32.154Z,0.6
2023-01-09T13:23:40.831Z,0.7
2023-01-09T13:24:49.377Z,0.7
2023-01-09T13:25:57.800Z,0.7
2023-01-09T13:27:06.463Z,0.6
2023-01-09T13:28:14.846Z,0.6
2023-01-09T13:29:23.314Z,0.6
2023-01-09T13:30:31.894Z,0.5
2023-01-09T13:31:40.289Z,0.5
2023-01-09T13:32:48.645Z,0.5
2023-01-09T13:33:57.241Z,0.6
2023-01-09T13:35:05.613Z,0.6
2023-01-09T13:36:13.982Z,0.6
2023-01-09T13:37:22.555Z,0.6
2023-01-09T13:38:31.002Z,0.6
2023-01-09T13:39:39.333Z,0.6
2023-01-09T13:40:47.966Z,0.8
2023-01-09T13:41:56.367Z,0.8
2023-01-09T13:43:04.678Z,0.8
2023-01-09T13:44:13.265Z,0.8
2023-01-09T13:45:22.936Z,0.8
2023-01-09T13:46:30.055Z,0.8
2023-01-09T13:47:38.636Z,0.6
2023-01-09T13:48:46.994Z,0.6
2023-01-09T13:49:55.427Z,0.6
2023-01-09T13:51:03.989Z,0.7
2023-01-09T13:52:12.366Z,0.7
2023-01-09T13:53:20.766Z,0.7
2023-01-09T13:54:29.357Z,0.7
2023-01-09T13:55:37.771Z,0.7
2023-01-09T13:56:46.139Z,0.7
2023-01-09T13:57:54.767Z,0.8
2023-01-09T13:59:03.112Z,0.8
2023-01-09T14:00:11.468Z,0.8
2023-01-09T14:01:20.074Z,0.9
2023-01-09T14:02:28.563Z,0.9
2023-01-09T14:03:36.862Z,0.9
2023-01-09T14:04:45.463Z,1
2023-01-09T14:05:53.839Z,1
2023-01-09T14:07:02.268Z,1
2023-01-09T14:08:10.901Z,0.9
2023-01-09T14:09:19.272Z,0.9
2023-01-09T14:10:27.677Z,0.9
2023-01-09T14:11:36.324Z,7.8
2023-01-09T14:12:44.723Z,7.8
2023-01-09T14:13:53.119Z,7.8
2023-01-09T14:15:01.656Z,0.9
2023-01-09T14:16:10.105Z,0.9
2023-01-09T14:17:18.409Z,0.9
2023-01-09T14:18:27.003Z,0.6
2023-01-09T14:19:35.402Z,0.6
2023-01-09T14:20:43.757Z,0.6
2023-01-09T14:21:52.316Z,1.2
2023-01-09T14:24:09.052Z,1.2
2023-01-09T14:25:17.641Z,1.4
2023-01-09T14:26:26.088Z,1.4
2023-01-09T14:27:34.490Z,1.4
2023-01-09T14:28:43.088Z,1.6
2023-01-09T14:29:51.478Z,1.6
2023-01-09T14:30:59.837Z,1.6
2023-01-09T15:04:23.879Z,0
2023-01-09T15:05:32.220Z,0
2023-01-09T15:06:40.691Z,0
2023-01-09T15:07:49.293Z,1.1
2023-01-09T15:08:57.667Z,1.1
2023-01-09T15:10:06.032Z,1.1
2023-01-09T15:11:14.637Z,0.8
2023-01-09T15:12:23.018Z,0.8
2023-01-09T15:13:31.409Z,0.8
2023-01-09T15:14:40.059Z,1.4
2023-01-09T15:15:48.371Z,1.4
2023-01-09T15:16:56.743Z,1.4
2023-01-09T15:18:05.341Z,1
2023-01-09T15:19:13.718Z,1
2023-01-09T15:20:22.129Z,1
2023-01-09T15:21:30.689Z,1
2023-01-09T15:22:39.090Z,1
2023-01-09T15:23:47.491Z,1
2023-01-09T15:24:56.084Z,1.2
2023-01-09T15:26:04.477Z,1.2
2023-01-09T15:27:12.903Z,1.2
2023-01-09T15:28:21.445Z,1.5
2023-01-09T15:29:29.820Z,1.5
2023-01-09T15:30:38.190Z,1.5
2023-01-09T15:31:46.804Z,1.9
2023-01-09T15:32:55.157Z,1.9
2023-01-09T15:34:03.612Z,1.9
2023-01-09T15:35:12.194Z,0.9
2023-01-09T15:36:21.264Z,0.9
2023-01-09T15:37:29.555Z,0.9
2023-01-09T15:38:38.145Z,2.2
2023-01-09T15:39:46.542Z,2.2
2023-01-09T15:40:54.910Z,2.2
2023-01-09T15:42:03.482Z,1.3
2023-01-09T15:43:11.879Z,1.3
2023-01-09T15:44:20.250Z,1.3
2023-01-09T15:45:28.860Z,1.6
2023-01-09T15:46:37.180Z,1.6
2023-01-09T15:47:45.580Z,1.6
2023-01-09T15:48:54.494Z,1.6
2023-01-09T15:50:02.709Z,1.6
2023-01-09T15:51:11.092Z,1.6
2023-01-09T15:52:19.689Z,1.3
2023-01-09T15:53:28.053Z,1.3
2023-01-09T15:54:36.427Z,1.3
2023-01-09T15:55:45.012Z,2.7
2023-01-09T15:56:53.382Z,2.7
2023-01-09T15:58:01.750Z,2.7
2023-01-09T15:59:10.306Z,2.6
2023-01-09T16:00:18.705Z,2.6
2023-01-09T16:01:27.154Z,2.6
2023-01-09T16:02:35.647Z,3
2023-01-09T16:03:44.035Z,3
2023-01-09T16:04:52.394Z,3
2023-01-09T16:06:00.951Z,2.9
2023-01-09T16:07:09.443Z,2.9
2023-01-09T16:08:17.864Z,2.9
2023-01-09T16:09:26.407Z,4.1
2023-01-09T16:10:34.772Z,4.1
2023-01-09T16:11:43.158Z,4.1
2023-01-09T16:12:51.708Z,2.2
2023-01-09T16:14:00.066Z,2.2
2023-01-09T16:15:08.419Z,2.2
2023-01-09T16:16:17.062Z,2
2023-01-09T16:17:25.377Z,2
2023-01-09T16:18:33.742Z,2
2023-01-09T16:19:42.261Z,1.9
2023-01-09T16:20:50.615Z,1.9
2023-01-09T16:21:58.964Z,1.9